createdAt,value
2016-06-27T00:00:01.870Z,22.85
2016-06-27T00:01:01.279Z,22.91
2016-06-27T00:02:01.331Z,22.88
2016-06-27T00:03:01.954Z,22.83
2016-06-27T00:04:01.366Z,22.83
2016-06-27T00:05:02.032Z,22.84
2016-06-27T00:06:01.427Z,22.84
2016-06-27T00:07:02.086Z,22.8
2016-06-27T00:08:02.108Z,22.81
2016-06-27T00:09:01.515Z,22.8
2016-06-27T00:10:00.926Z,22.69
2016-06-27T00:11:00.970Z,22.63
2016-06-27T00:12:02.220Z,22.68
2016-06-27T00:13:00.996Z,22.73
2016-06-27T00:14:02.270Z,22.68
2016-06-27T00:15:02.280Z,22.62
2016-06-27T00:16:01.707Z,22.59
2016-06-27T00:17:01.138Z,22.6
2016-06-27T00:18:02.386Z,22.55
2016-06-27T00:19:01.797Z,22.57
2016-06-27T00:20:01.835Z,22.57
2016-06-27T00:21:01.859Z,22.63
2016-06-27T00:22:01.872Z,22.5
2016-06-27T00:23:01.893Z,22.5
2016-06-27T00:24:02.555Z,22.51
2016-06-27T00:25:01.967Z,22.45
2016-06-27T00:26:02.613Z,22.47
2016-06-27T00:27:02.631Z,22.6
2016-06-27T00:28:02.071Z,22.45
2016-06-27T00:29:02.072Z,22.5
2016-06-27T00:30:02.720Z,22.39
2016-06-27T00:31:02.781Z,22.53
2016-06-27T00:32:02.152Z,22.5
2016-06-27T00:33:02.791Z,22.48
2016-06-27T00:34:01.587Z,22.35
2016-06-27T00:35:02.243Z,22.39
2016-06-27T00:36:02.266Z,22.41
2016-06-27T00:37:02.287Z,22.36
2016-06-27T00:38:02.337Z,22.35
2016-06-27T00:39:01.747Z,22.32
2016-06-27T00:40:02.394Z,22.32
2016-06-27T00:41:01.786Z,22.29
2016-06-27T00:42:02.458Z,22.29
2016-06-27T00:43:02.467Z,22.2
2016-06-27T00:44:02.497Z,22.25
2016-06-27T00:45:03.131Z,22.23
2016-06-27T00:46:02.559Z,22.28
2016-06-27T00:47:02.568Z,22.23
2016-06-27T00:48:03.209Z,22.22
2016-06-27T00:49:02.001Z,22.26
2016-06-27T00:50:02.681Z,22.13
2016-06-27T00:51:02.091Z,22.1
2016-06-27T00:52:02.725Z,22.15
2016-06-27T00:53:02.137Z,22.14
2016-06-27T00:54:02.783Z,22
2016-06-27T00:55:02.799Z,22.06
2016-06-27T00:56:02.821Z,22.04
2016-06-27T00:57:03.462Z,22.04
2016-06-27T00:58:02.890Z,21.99
2016-06-27T00:59:03.542Z,21.98
2016-06-27T01:00:02.299Z,22
2016-06-27T01:01:03.579Z,22
2016-06-27T01:02:03.602Z,22.02
2016-06-27T01:03:03.029Z,22
2016-06-27T01:04:02.433Z,22
2016-06-27T01:05:02.453Z,22.02
2016-06-27T01:06:03.725Z,21.91
2016-06-27T01:07:03.751Z,21.93
2016-06-27T01:08:03.767Z,21.93
2016-06-27T01:09:03.188Z,21.83
2016-06-27T01:10:03.210Z,21.8
2016-06-27T01:11:03.239Z,21.89
2016-06-27T01:12:02.663Z,21.79
2016-06-27T01:13:03.292Z,21.88
2016-06-27T01:14:03.930Z,21.8
2016-06-27T01:15:03.955Z,21.82
2016-06-27T01:16:03.380Z,21.8
2016-06-27T01:17:04.022Z,21.79
2016-06-27T01:18:03.449Z,21.7
2016-06-27T01:19:03.471Z,21.72
2016-06-27T01:20:02.853Z,21.72
2016-06-27T01:21:03.510Z,21.64
2016-06-27T01:22:04.149Z,21.66
2016-06-27T01:23:03.577Z,21.6
2016-06-27T01:24:03.596Z,21.58
2016-06-27T01:25:04.238Z,21.58
2016-06-27T01:26:03.661Z,21.62
2016-06-27T01:27:03.666Z,21.54
2016-06-27T01:28:03.713Z,21.57
2016-06-27T01:29:03.721Z,21.55
2016-06-27T01:30:03.160Z,21.58
2016-06-27T01:31:04.420Z,21.61
2016-06-27T01:32:04.429Z,21.5
2016-06-27T01:33:03.824Z,21.52
2016-06-27T01:34:04.474Z,21.51
2016-06-27T01:35:03.882Z,21.45
2016-06-27T01:36:04.532Z,21.4
2016-06-27T01:37:03.936Z,21.51
2016-06-27T01:38:03.350Z,21.42
2016-06-27T01:39:04.003Z,21.42
2016-06-27T01:40:04.030Z,21.4
2016-06-27T01:41:04.677Z,21.36
2016-06-27T01:42:04.078Z,21.37
2016-06-27T01:43:04.131Z,21.39
2016-06-27T01:44:03.530Z,21.37
2016-06-27T01:45:04.782Z,21.39
2016-06-27T01:46:04.192Z,21.37
2016-06-27T01:47:04.835Z,21.36
2016-06-27T01:48:04.262Z,21.3
2016-06-27T01:49:04.279Z,21.32
2016-06-27T01:50:04.950Z,21.32
2016-06-27T01:51:05.004Z,21.33
2016-06-27T01:52:04.975Z,21.33
2016-06-27T01:53:04.382Z,21.27
2016-06-27T01:54:03.805Z,21.25
2016-06-27T01:55:04.437Z,21.24
2016-06-27T01:56:05.108Z,21.21
2016-06-27T01:57:05.111Z,21.25
2016-06-27T01:58:04.502Z,21.24
2016-06-27T01:59:05.167Z,21.17
2016-06-27T02:00:04.565Z,21.22
2016-06-27T02:01:04.605Z,21.2
2016-06-27T02:02:04.618Z,21.18
2016-06-27T02:03:04.643Z,21.22
2016-06-27T02:04:04.667Z,21.22
2016-06-27T02:05:05.309Z,21.17
2016-06-27T02:06:04.741Z,21.17
2016-06-27T02:07:04.756Z,21.17
2016-06-27T02:08:04.163Z,21.07
2016-06-27T02:09:05.419Z,21.17
2016-06-27T02:10:05.458Z,21.18
2016-06-27T02:11:04.846Z,21.15
2016-06-27T02:12:04.881Z,21.07
2016-06-27T02:13:05.530Z,21.07
2016-06-27T02:14:04.986Z,21
2016-06-27T02:15:04.369Z,21.09
2016-06-27T02:16:05.012Z,21
2016-06-27T02:17:05.638Z,21.02
2016-06-27T02:18:05.039Z,21.07
2016-06-27T02:19:05.071Z,21.03
2016-06-27T02:20:05.722Z,21.03
2016-06-27T02:21:05.745Z,20.99
2016-06-27T02:22:05.150Z,21.02
2016-06-27T02:23:05.811Z,20.92
2016-06-27T02:24:05.199Z,20.97
2016-06-27T02:25:05.858Z,20.96
2016-06-27T02:26:04.655Z,20.96
2016-06-27T02:27:05.275Z,21
2016-06-27T02:28:05.310Z,20.96
2016-06-27T02:29:04.719Z,20.97
2016-06-27T02:30:05.366Z,20.88
2016-06-27T02:31:06.008Z,20.95
2016-06-27T02:32:05.463Z,20.88
2016-06-27T02:33:06.055Z,20.87
2016-06-27T02:34:05.471Z,20.77
2016-06-27T02:35:06.112Z,20.74
2016-06-27T02:36:05.526Z,20.84
2016-06-27T02:37:06.162Z,20.87
2016-06-27T02:38:05.575Z,20.84
2016-06-27T02:39:06.228Z,20.84
2016-06-27T02:40:05.634Z,20.81
2016-06-27T02:41:05.677Z,20.77
2016-06-27T02:42:06.290Z,20.78
2016-06-27T02:43:06.322Z,20.72
2016-06-27T02:44:05.129Z,20.75
2016-06-27T02:45:05.756Z,20.72
2016-06-27T02:46:05.774Z,20.72
2016-06-27T02:47:05.805Z,20.67
2016-06-27T02:48:05.845Z,20.65
2016-06-27T02:49:05.253Z,20.6
2016-06-27T02:50:06.506Z,20.63
2016-06-27T02:51:05.917Z,20.67
2016-06-27T02:52:05.942Z,20.63
2016-06-27T02:53:06.584Z,20.63
2016-06-27T02:54:06.004Z,20.63
2016-06-27T02:55:05.403Z,20.66
2016-06-27T02:56:06.048Z,20.56
2016-06-27T02:57:06.076Z,20.52
2016-06-27T02:58:06.716Z,20.58
2016-06-27T02:59:06.752Z,20.59
2016-06-27T03:00:06.778Z,20.56
2016-06-27T03:01:05.565Z,20.5
2016-06-27T03:02:06.213Z,20.47
2016-06-27T03:03:06.228Z,20.51
2016-06-27T03:04:06.877Z,20.47
2016-06-27T03:05:05.668Z,20.51
2016-06-27T03:06:06.924Z,20.51
2016-06-27T03:07:06.337Z,20.51
2016-06-27T03:08:05.758Z,20.5
2016-06-27T03:09:06.404Z,20.51
2016-06-27T03:10:06.416Z,20.4
2016-06-27T03:11:06.440Z,20.4
2016-06-27T03:12:06.471Z,20.44
2016-06-27T03:13:06.510Z,20.44
2016-06-27T03:14:06.542Z,20.47
2016-06-27T03:15:07.178Z,20.52
2016-06-27T03:16:07.188Z,20.39
2016-06-27T03:17:07.237Z,20.43
2016-06-27T03:18:07.237Z,20.31
2016-06-27T03:19:06.651Z,20.43
2016-06-27T03:20:06.675Z,20.39
2016-06-27T03:21:07.337Z,20.31
2016-06-27T03:22:06.726Z,20.47
2016-06-27T03:23:06.131Z,20.32
2016-06-27T03:24:07.411Z,20.44
2016-06-27T03:25:06.828Z,20.41
2016-06-27T03:26:07.456Z,20.43
2016-06-27T03:27:06.886Z,20.32
2016-06-27T03:28:06.292Z,20.32
2016-06-27T03:29:06.941Z,20.28
2016-06-27T03:30:06.945Z,20.39
2016-06-27T03:31:07.010Z,20.32
2016-06-27T03:32:07.617Z,20.34
2016-06-27T03:33:07.690Z,20.4
2016-06-27T03:34:07.668Z,20.31
2016-06-27T03:35:07.071Z,20.37
2016-06-27T03:36:07.719Z,20.31
2016-06-27T03:37:07.129Z,20.32
2016-06-27T03:38:07.786Z,20.26
2016-06-27T03:39:07.174Z,20.25
2016-06-27T03:40:07.218Z,20.31
2016-06-27T03:41:07.241Z,20.31
2016-06-27T03:42:07.261Z,20.29
2016-06-27T03:43:07.272Z,20.32
2016-06-27T03:44:07.920Z,20.29
2016-06-27T03:45:07.964Z,20.31
2016-06-27T03:46:07.364Z,20.37
2016-06-27T03:47:08.011Z,20.29
2016-06-27T03:48:07.413Z,20.32
2016-06-27T03:49:08.058Z,20.29
2016-06-27T03:50:07.485Z,20.19
2016-06-27T03:51:08.114Z,20.25
2016-06-27T03:52:07.507Z,20.28
2016-06-27T03:53:06.908Z,20.31
2016-06-27T03:54:08.186Z,20.36
2016-06-27T03:55:08.218Z,20.31
2016-06-27T03:56:08.233Z,20.34
2016-06-27T03:57:08.275Z,20.34
2016-06-27T03:58:08.319Z,20.41
2016-06-27T03:59:07.690Z,20.19
2016-06-27T04:00:07.733Z,20.39
2016-06-27T04:01:07.144Z,20.31
2016-06-27T04:02:08.426Z,20.31
2016-06-27T04:03:07.811Z,20.4
2016-06-27T04:04:08.456Z,20.39
2016-06-27T04:05:07.853Z,20.34
2016-06-27T04:06:08.490Z,20.32
2016-06-27T04:07:07.907Z,20.32
2016-06-27T04:08:08.543Z,20.34
2016-06-27T04:09:07.336Z,20.41
2016-06-27T04:10:07.363Z,20.43
2016-06-27T04:11:08.646Z,20.4
2016-06-27T04:12:08.039Z,20.36
2016-06-27T04:13:07.669Z,20.47
2016-06-27T04:14:08.079Z,20.34
2016-06-27T04:15:07.496Z,20.44
2016-06-27T04:16:08.741Z,20.29
2016-06-27T04:17:07.552Z,20.44
2016-06-27T04:18:08.804Z,20.29
2016-06-27T04:19:08.852Z,20.44
2016-06-27T04:20:08.867Z,20.26
2016-06-27T04:21:08.899Z,20.44
2016-06-27T04:22:08.284Z,20.36
2016-06-27T04:23:08.307Z,20.4
2016-06-27T04:24:08.349Z,20.48
2016-06-27T04:25:08.379Z,20.39
2016-06-27T04:26:09.017Z,20.51
2016-06-27T04:27:09.058Z,20.48
2016-06-27T04:28:09.061Z,20.4
2016-06-27T04:29:09.096Z,20.51
2016-06-27T04:30:07.879Z,20.43
2016-06-27T04:31:08.519Z,20.44
2016-06-27T04:32:07.933Z,20.43
2016-06-27T04:33:08.571Z,20.43
2016-06-27T04:34:08.614Z,20.43
2016-06-27T04:35:09.250Z,20.43
2016-06-27T04:36:09.271Z,20.51
2016-06-27T04:37:09.297Z,20.47
2016-06-27T04:38:09.334Z,20.47
2016-06-27T04:39:09.382Z,20.51
2016-06-27T04:40:08.778Z,20.44
2016-06-27T04:41:09.410Z,20.44
2016-06-27T04:42:09.438Z,20.44
2016-06-27T04:43:08.832Z,20.48
2016-06-27T04:44:09.512Z,20.47
2016-06-27T04:45:08.267Z,20.47
2016-06-27T04:46:08.295Z,20.52
2016-06-27T04:47:08.942Z,20.56
2016-06-27T04:48:09.584Z,20.56
2016-06-27T04:49:08.983Z,20.52
2016-06-27T04:50:09.023Z,20.66
2016-06-27T04:51:09.652Z,20.59
2016-06-27T04:52:09.075Z,20.52
2016-06-27T04:53:09.711Z,20.6
2016-06-27T04:54:09.744Z,20.62
2016-06-27T04:55:09.971Z,20.63
2016-06-27T04:56:09.804Z,20.58
2016-06-27T04:57:09.822Z,20.6
2016-06-27T04:58:09.238Z,20.59
2016-06-27T04:59:09.861Z,20.66
2016-06-27T05:00:09.271Z,20.69
2016-06-27T05:01:09.915Z,20.63
2016-06-27T05:02:09.325Z,20.62
2016-06-27T05:03:08.728Z,20.69
2016-06-27T05:04:10.004Z,20.72
2016-06-27T05:05:09.413Z,20.7
2016-06-27T05:06:10.052Z,20.74
2016-06-27T05:07:10.088Z,20.75
2016-06-27T05:08:09.482Z,20.72
2016-06-27T05:09:09.517Z,20.72
2016-06-27T05:10:10.169Z,20.72
2016-06-27T05:11:09.563Z,20.72
2016-06-27T05:12:08.974Z,20.75
2016-06-27T05:13:09.611Z,20.7
2016-06-27T05:14:09.022Z,20.72
2016-06-27T05:15:09.042Z,20.8
2016-06-27T05:16:09.695Z,20.78
2016-06-27T05:17:09.716Z,20.8
2016-06-27T05:18:10.366Z,20.77
2016-06-27T05:19:10.381Z,20.77
2016-06-27T05:20:09.801Z,20.8
2016-06-27T05:21:10.435Z,20.8
2016-06-27T05:22:10.478Z,20.8
2016-06-27T05:23:10.487Z,20.77
2016-06-27T05:24:09.278Z,20.9
2016-06-27T05:25:10.557Z,20.8
2016-06-27T05:26:09.335Z,20.84
2016-06-27T05:27:09.979Z,20.92
2016-06-27T05:28:10.012Z,20.8
2016-06-27T05:29:12.126Z,20.93
2016-06-27T05:30:11.602Z,20.85
2016-06-27T05:31:10.703Z,20.88
2016-06-27T05:32:10.109Z,20.85
2016-06-27T05:33:10.741Z,20.81
2016-06-27T05:34:10.160Z,20.92
2016-06-27T05:35:10.174Z,20.95
2016-06-27T05:36:09.591Z,20.9
2016-06-27T05:37:09.604Z,20.96
2016-06-27T05:38:09.645Z,20.99
2016-06-27T05:39:10.914Z,20.93
2016-06-27T05:40:10.300Z,20.88
2016-06-27T05:41:10.971Z,20.97
2016-06-27T05:42:10.378Z,20.92
2016-06-27T05:43:10.394Z,21.06
2016-06-27T05:44:09.818Z,21.02
2016-06-27T05:45:10.455Z,21.05
2016-06-27T05:46:09.842Z,20.96
2016-06-27T05:47:10.506Z,21.03
2016-06-27T05:48:10.516Z,21.05
2016-06-27T05:49:10.557Z,21.09
2016-06-27T05:50:10.586Z,21.12
2016-06-27T05:51:11.213Z,21.12
2016-06-27T05:52:11.280Z,21.18
2016-06-27T05:53:10.034Z,21.15
2016-06-27T05:54:11.286Z,21.18
2016-06-27T05:55:10.088Z,21.2
2016-06-27T05:56:11.354Z,21.24
2016-06-27T05:57:11.377Z,21.24
2016-06-27T05:58:10.770Z,21.29
2016-06-27T05:59:11.445Z,21.22
2016-06-27T06:00:10.838Z,21.24
2016-06-27T06:01:10.853Z,21.25
2016-06-27T06:02:11.510Z,21.29
2016-06-27T06:03:11.534Z,21.32
2016-06-27T06:04:11.576Z,21.33
2016-06-27T06:05:11.580Z,21.3
2016-06-27T06:06:10.998Z,21.25
2016-06-27T06:07:11.647Z,21.29
2016-06-27T06:08:11.051Z,21.4
2016-06-27T06:09:11.698Z,21.43
2016-06-27T06:10:11.093Z,21.37
2016-06-27T06:11:11.122Z,21.36
2016-06-27T06:12:11.154Z,21.45
2016-06-27T06:13:11.171Z,21.43
2016-06-27T06:14:11.202Z,21.5
2016-06-27T06:15:11.242Z,21.46
2016-06-27T06:16:11.255Z,21.46
2016-06-27T06:17:11.906Z,21.48
2016-06-27T06:18:11.319Z,21.5
2016-06-27T06:19:11.949Z,21.48
2016-06-27T06:20:11.354Z,21.6
2016-06-27T06:21:12.020Z,21.52
2016-06-27T06:22:12.178Z,21.54
2016-06-27T06:23:12.059Z,21.62
2016-06-27T06:24:11.455Z,21.62
2016-06-27T06:25:12.122Z,21.66
2016-06-27T06:26:10.904Z,21.6
2016-06-27T06:27:11.545Z,21.64
2016-06-27T06:28:11.571Z,21.72
2016-06-27T06:29:12.217Z,21.75
2016-06-27T06:30:11.025Z,21.75
2016-06-27T06:31:11.650Z,21.8
2016-06-27T06:32:12.291Z,21.79
2016-06-27T06:33:11.732Z,21.76
2016-06-27T06:34:12.350Z,21.83
2016-06-27T06:35:11.787Z,21.77
2016-06-27T06:36:11.167Z,21.82
2016-06-27T06:37:12.436Z,21.88
2016-06-27T06:38:12.539Z,21.77
2016-06-27T06:39:12.565Z,21.88
2016-06-27T06:40:12.511Z,21.79
2016-06-27T06:41:12.539Z,21.8
2016-06-27T06:42:11.946Z,21.82
2016-06-27T06:43:12.590Z,21.99
2016-06-27T06:44:12.003Z,21.93
2016-06-27T06:45:12.014Z,21.91
2016-06-27T06:46:12.752Z,21.96
2016-06-27T06:47:12.814Z,21.96
2016-06-27T06:48:12.100Z,21.91
2016-06-27T06:49:11.588Z,21.99
2016-06-27T06:50:12.788Z,22
2016-06-27T06:51:12.798Z,22.04
2016-06-27T06:52:12.837Z,21.99
2016-06-27T06:53:11.618Z,22.04
2016-06-27T06:54:12.891Z,22.04
2016-06-27T06:55:11.677Z,22
2016-06-27T06:56:12.334Z,22.02
2016-06-27T06:57:12.971Z,22.04
2016-06-27T06:58:12.369Z,21.98
2016-06-27T06:59:12.507Z,21.99
2016-06-27T07:00:12.431Z,21.99
2016-06-27T07:01:12.446Z,21.99
2016-06-27T07:02:12.474Z,21.99
2016-06-27T07:03:13.139Z,22
2016-06-27T07:04:12.620Z,22
2016-06-27T07:05:12.631Z,21.96
2016-06-27T07:06:12.871Z,22
2016-06-27T07:07:13.336Z,22.02
2016-06-27T07:08:12.067Z,22.06
2016-06-27T07:09:12.687Z,22
2016-06-27T07:10:13.314Z,21.99
2016-06-27T07:11:12.728Z,22.04
2016-06-27T07:12:13.369Z,22.02
2016-06-27T07:13:12.777Z,22.15
2016-06-27T07:14:12.813Z,22.11
2016-06-27T07:15:12.826Z,22.1
2016-06-27T07:16:12.850Z,22.13
2016-06-27T07:17:12.893Z,22.2
2016-06-27T07:18:13.519Z,22.22
2016-06-27T07:19:12.936Z,22.26
2016-06-27T07:20:12.968Z,22.29
2016-06-27T07:21:12.991Z,22.28
2016-06-27T07:22:13.019Z,22.36
2016-06-27T07:23:13.650Z,22.36
2016-06-27T07:24:12.452Z,22.35
2016-06-27T07:25:13.722Z,22.47
2016-06-27T07:26:13.137Z,22.45
2016-06-27T07:27:13.787Z,22.43
2016-06-27T07:28:12.554Z,22.43
2016-06-27T07:29:13.196Z,22.45
2016-06-27T07:30:13.233Z,22.53
2016-06-27T07:31:12.636Z,22.66
2016-06-27T07:32:13.303Z,22.63
2016-06-27T07:33:13.371Z,22.69
2016-06-27T07:34:13.338Z,22.68
2016-06-27T07:35:13.364Z,22.73
2016-06-27T07:36:14.004Z,22.83
2016-06-27T07:37:14.034Z,22.8
2016-06-27T07:38:13.450Z,22.85
2016-06-27T07:39:14.106Z,22.88
2016-06-27T07:40:14.117Z,22.94
2016-06-27T07:41:14.156Z,22.99
2016-06-27T07:42:13.554Z,22.98
2016-06-27T07:43:14.208Z,23.13
2016-06-27T07:44:13.627Z,23.2
2016-06-27T07:45:13.634Z,23.31
2016-06-27T07:46:13.060Z,23.23
2016-06-27T07:47:14.313Z,23.27
2016-06-27T07:48:13.727Z,23.36
2016-06-27T07:49:14.395Z,23.47
2016-06-27T07:50:14.407Z,23.51
2016-06-27T07:51:13.177Z,23.66
2016-06-27T07:52:14.530Z,23.65
2016-06-27T07:53:13.937Z,23.69
2016-06-27T07:54:13.262Z,23.77
2016-06-27T07:55:13.293Z,23.74
2016-06-27T07:56:13.941Z,23.74
2016-06-27T07:57:14.948Z,23.83
2016-06-27T07:58:13.991Z,23.81
2016-06-27T07:59:14.017Z,23.76
2016-06-27T08:00:13.431Z,23.78
2016-06-27T08:01:14.174Z,23.87
2016-06-27T08:02:14.788Z,23.86
2016-06-27T08:03:14.191Z,23.95
2016-06-27T08:04:13.726Z,23.99
2016-06-27T08:05:14.994Z,24.02
2016-06-27T08:06:14.374Z,24.06
2016-06-27T08:07:13.770Z,24.08
2016-06-27T08:08:13.776Z,24.17
2016-06-27T08:09:14.441Z,24.17
2016-06-27T08:10:14.435Z,24.2
2016-06-27T08:11:14.450Z,24.23
2016-06-27T08:12:15.069Z,24.29
2016-06-27T08:13:15.075Z,24.33
2016-06-27T08:14:14.470Z,24.35
2016-06-27T08:15:14.543Z,24.38
2016-06-27T08:16:15.174Z,24.38
2016-06-27T08:17:13.983Z,24.47
2016-06-27T08:18:14.590Z,24.47
2016-06-27T08:19:14.605Z,24.43
2016-06-27T08:20:15.218Z,24.54
2016-06-27T08:21:14.055Z,24.53
2016-06-27T08:22:15.284Z,24.53
2016-06-27T08:23:14.057Z,24.58
2016-06-27T08:24:14.713Z,24.68
2016-06-27T08:25:14.115Z,24.65
2016-06-27T08:26:14.792Z,24.63
2016-06-27T08:27:14.802Z,24.66
2016-06-27T08:28:14.205Z,24.73
2016-06-27T08:29:15.460Z,24.77
2016-06-27T08:30:14.928Z,24.77
2016-06-27T08:31:14.901Z,24.84
2016-06-27T08:32:15.545Z,24.86
2016-06-27T08:33:15.598Z,24.84
2016-06-27T08:34:15.596Z,24.93
2016-06-27T08:35:15.018Z,25.04
2016-06-27T08:36:15.050Z,25.04
2016-06-27T08:37:15.073Z,25.1
2016-06-27T08:38:14.480Z,25.08
2016-06-27T08:39:15.744Z,25.18
2016-06-27T08:40:15.622Z,25.17
2016-06-27T08:41:15.174Z,25.29
2016-06-27T08:42:14.604Z,25.28
2016-06-27T08:43:15.246Z,25.35
2016-06-27T08:44:15.271Z,25.48
2016-06-27T08:45:15.917Z,25.38
2016-06-27T08:46:15.317Z,25.59
2016-06-27T08:47:15.982Z,25.59
2016-06-27T08:48:14.794Z,25.53
2016-06-27T08:49:15.403Z,25.6
2016-06-27T08:50:16.035Z,25.73
2016-06-27T08:51:15.470Z,25.72
2016-06-27T08:52:15.500Z,25.72
2016-06-27T08:53:16.180Z,25.77
2016-06-27T08:54:16.204Z,25.77
2016-06-27T08:55:16.709Z,25.88
2016-06-27T08:56:15.619Z,25.96
2016-06-27T08:57:15.649Z,25.95
2016-06-27T08:58:15.039Z,26.09
2016-06-27T08:59:15.721Z,26.13
2016-06-27T09:00:15.726Z,26.15
2016-06-27T09:01:16.359Z,26.16
2016-06-27T09:02:15.774Z,26.18
2016-06-27T09:03:15.796Z,26.21
2016-06-27T09:04:15.233Z,26.28
2016-06-27T09:05:16.483Z,26.28
2016-06-27T09:06:15.278Z,26.34
2016-06-27T09:07:15.920Z,26.41
2016-06-27T09:08:15.958Z,26.47
2016-06-27T09:09:16.013Z,26.48
2016-06-27T09:10:15.381Z,26.51
2016-06-27T09:11:15.411Z,26.52
2016-06-27T09:12:16.682Z,26.52
2016-06-27T09:13:16.098Z,26.47
2016-06-27T09:14:16.137Z,26.56
2016-06-27T09:15:16.777Z,26.6
2016-06-27T09:16:16.851Z,26.59
2016-06-27T09:17:16.830Z,26.6
2016-06-27T09:18:15.614Z,26.63
2016-06-27T09:19:16.261Z,26.65
2016-06-27T09:20:16.295Z,26.7
2016-06-27T09:21:15.709Z,26.63
2016-06-27T09:22:16.966Z,26.75
2016-06-27T09:23:15.770Z,26.74
2016-06-27T09:24:17.031Z,26.85
2016-06-27T09:25:16.439Z,26.89
2016-06-27T09:26:17.090Z,26.9
2016-06-27T09:27:17.111Z,26.93
2016-06-27T09:28:17.159Z,27.08
2016-06-27T09:29:15.951Z,27
2016-06-27T09:30:15.968Z,27.14
2016-06-27T09:31:16.615Z,27.22
2016-06-27T09:32:16.646Z,27.22
2016-06-27T09:33:17.300Z,27.25
2016-06-27T09:34:16.090Z,27.22
2016-06-27T09:35:16.742Z,27.3
2016-06-27T09:36:16.765Z,27.35
2016-06-27T09:37:16.171Z,27.42
2016-06-27T09:38:16.201Z,27.33
2016-06-27T09:39:17.478Z,27.47
2016-06-27T09:40:16.890Z,27.44
2016-06-27T09:41:16.925Z,27.49
2016-06-27T09:42:16.335Z,27.47
2016-06-27T09:43:17.613Z,27.6
2016-06-27T09:44:17.002Z,27.63
2016-06-27T09:45:17.033Z,27.71
2016-06-27T09:46:17.682Z,27.75
2016-06-27T09:47:16.483Z,27.8
2016-06-27T09:48:17.751Z,27.87
2016-06-27T09:49:17.162Z,27.96
2016-06-27T09:50:17.786Z,28.02
2016-06-27T09:51:16.594Z,28.05
2016-06-27T09:52:17.252Z,28.14
2016-06-27T09:53:17.886Z,28.3
2016-06-27T09:54:17.300Z,28.23
2016-06-27T09:55:17.962Z,28.37
2016-06-27T09:56:16.754Z,28.41
2016-06-27T09:57:17.379Z,28.42
2016-06-27T09:58:17.413Z,28.49
2016-06-27T09:59:17.449Z,28.56
2016-06-27T10:00:18.113Z,28.67
2016-06-27T10:01:17.521Z,28.67
2016-06-27T10:02:18.167Z,28.82
2016-06-27T10:03:17.577Z,28.85
2016-06-27T10:04:16.991Z,29.04
2016-06-27T10:05:17.010Z,29.05
2016-06-27T10:06:17.678Z,29.16
2016-06-27T10:07:17.687Z,29.14
2016-06-27T10:08:18.388Z,29.29
2016-06-27T10:09:17.761Z,29.36
2016-06-27T10:10:17.192Z,29.51
2016-06-27T10:11:17.850Z,29.51
2016-06-27T10:12:17.224Z,29.66
2016-06-27T10:13:17.276Z,29.72
2016-06-27T10:14:17.923Z,29.78
2016-06-27T10:15:18.561Z,29.88
2016-06-27T10:16:17.959Z,29.9
2016-06-27T10:17:18.618Z,29.93
2016-06-27T10:18:18.644Z,30.1
2016-06-27T10:19:18.059Z,30.12
2016-06-27T10:20:18.728Z,30.19
2016-06-27T10:21:18.116Z,30.23
2016-06-27T10:22:18.770Z,30.31
2016-06-27T10:23:18.192Z,30.43
2016-06-27T10:24:18.235Z,30.47
2016-06-27T10:25:18.855Z,30.55
2016-06-27T10:26:18.280Z,30.55
2016-06-27T10:27:18.314Z,30.77
2016-06-27T10:28:18.358Z,30.78
2016-06-27T10:29:18.980Z,30.83
2016-06-27T10:30:18.404Z,31.05
2016-06-27T10:31:18.437Z,31.02
2016-06-27T10:32:18.469Z,31.15
2016-06-27T10:33:19.128Z,31.24
2016-06-27T10:34:18.532Z,31.25
2016-06-27T10:35:18.570Z,31.36
2016-06-27T10:36:19.230Z,31.33
2016-06-27T10:37:18.628Z,31.43
2016-06-27T10:38:18.665Z,31.4
2016-06-27T10:39:19.303Z,31.39
2016-06-27T10:40:18.728Z,31.43
2016-06-27T10:41:19.383Z,31.43
2016-06-27T10:42:18.880Z,31.49
2016-06-27T10:43:18.822Z,31.54
2016-06-27T10:44:18.848Z,31.54
2016-06-27T10:45:18.887Z,31.55
2016-06-27T10:46:18.294Z,31.62
2016-06-27T10:47:18.958Z,31.64
2016-06-27T10:48:19.604Z,31.55
2016-06-27T10:49:19.646Z,31.59
2016-06-27T10:50:18.422Z,31.55
2016-06-27T10:51:19.721Z,31.54
2016-06-27T10:52:19.741Z,31.51
2016-06-27T10:53:19.162Z,31.47
2016-06-27T10:54:19.170Z,31.44
2016-06-27T10:55:19.214Z,31.42
2016-06-27T10:56:19.249Z,31.43
2016-06-27T10:57:19.285Z,31.42
2016-06-27T10:58:19.994Z,31.46
2016-06-27T10:59:19.339Z,31.56
2016-06-27T11:00:18.747Z,31.47
2016-06-27T11:01:20.150Z,31.61
2016-06-27T11:02:18.814Z,31.54
2016-06-27T11:03:20.077Z,31.65
2016-06-27T11:04:20.134Z,31.69
2016-06-27T11:05:19.539Z,31.71
2016-06-27T11:06:20.261Z,31.85
2016-06-27T11:07:18.995Z,31.92
2016-06-27T11:08:19.635Z,31.9
2016-06-27T11:09:20.349Z,32.11
2016-06-27T11:10:20.359Z,32.15
2016-06-27T11:11:19.722Z,32.22
2016-06-27T11:12:19.769Z,32.31
2016-06-27T11:13:20.396Z,32.4
2016-06-27T11:14:19.829Z,32.41
2016-06-27T11:15:19.230Z,32.48
2016-06-27T11:16:20.528Z,32.63
2016-06-27T11:17:19.299Z,32.65
2016-06-27T11:18:19.957Z,32.67
2016-06-27T11:19:20.613Z,32.75
2016-06-27T11:20:20.044Z,32.77
2016-06-27T11:21:20.671Z,32.77
2016-06-27T11:22:20.104Z,32.74
2016-06-27T11:23:20.108Z,32.71
2016-06-27T11:24:19.535Z,32.74
2016-06-27T11:25:19.581Z,32.75
2016-06-27T11:26:20.326Z,32.68
2016-06-27T11:27:20.234Z,32.74
2016-06-27T11:28:19.690Z,32.71
2016-06-27T11:29:20.329Z,32.74
2016-06-27T11:30:20.363Z,32.75
2016-06-27T11:31:19.766Z,32.73
2016-06-27T11:32:21.033Z,32.65
2016-06-27T11:33:21.077Z,32.71
2016-06-27T11:34:21.185Z,32.71
2016-06-27T11:35:20.518Z,32.74
2016-06-27T11:36:20.551Z,32.71
2016-06-27T11:37:21.278Z,32.74
2016-06-27T11:38:21.238Z,32.71
2016-06-27T11:39:21.291Z,32.67
2016-06-27T11:40:20.681Z,32.67
2016-06-27T11:41:21.349Z,32.65
2016-06-27T11:42:20.763Z,32.67
2016-06-27T11:43:20.807Z,32.67
2016-06-27T11:44:20.818Z,32.71
2016-06-27T11:45:21.478Z,32.77
2016-06-27T11:46:20.276Z,32.74
2016-06-27T11:47:21.614Z,32.8
2016-06-27T11:48:21.064Z,32.86
2016-06-27T11:49:21.023Z,32.93
2016-06-27T11:50:21.673Z,33
2016-06-27T11:51:21.074Z,33.04
2016-06-27T11:52:21.090Z,33.02
2016-06-27T11:53:21.133Z,33.22
2016-06-27T11:54:21.773Z,33.34
2016-06-27T11:55:21.197Z,33.4
2016-06-27T11:56:21.853Z,33.43
2016-06-27T11:57:21.279Z,33.5
2016-06-27T11:58:21.296Z,33.53
2016-06-27T11:59:21.330Z,33.46
2016-06-27T12:00:22.034Z,33.5
2016-06-27T12:01:20.796Z,33.47
2016-06-27T12:02:20.822Z,33.45
2016-06-27T12:03:21.467Z,33.4
2016-06-27T12:04:21.490Z,33.39
2016-06-27T12:05:21.534Z,33.43
2016-06-27T12:06:20.951Z,33.42
2016-06-27T12:07:21.599Z,33.39
2016-06-27T12:08:21.212Z,33.47
2016-06-27T12:09:21.057Z,33.34
2016-06-27T12:10:21.777Z,33.32
2016-06-27T12:11:21.110Z,33.3
2016-06-27T12:12:21.767Z,33.2
2016-06-27T12:13:23.029Z,33.15
2016-06-27T12:14:22.470Z,33.19
2016-06-27T12:15:23.094Z,33.09
2016-06-27T12:16:22.526Z,33.05
2016-06-27T12:17:21.940Z,33.05
2016-06-27T12:18:22.595Z,33
2016-06-27T12:19:22.018Z,33.09
2016-06-27T12:20:21.445Z,33.07
2016-06-27T12:21:22.710Z,32.89
2016-06-27T12:22:22.119Z,33
2016-06-27T12:23:22.784Z,33
2016-06-27T12:24:22.802Z,33
2016-06-27T12:25:22.900Z,32.96
2016-06-27T12:26:22.869Z,32.93
2016-06-27T12:27:21.673Z,33.05
2016-06-27T12:28:22.318Z,32.89
2016-06-27T12:29:22.977Z,33.19
2016-06-27T12:30:23.034Z,33.22
2016-06-27T12:31:21.794Z,33.27
2016-06-27T12:32:23.075Z,33.31
2016-06-27T12:33:23.109Z,33.37
2016-06-27T12:34:23.144Z,33.37
2016-06-27T12:35:21.946Z,33.37
2016-06-27T12:36:22.598Z,33.45
2016-06-27T12:37:22.014Z,33.49
2016-06-27T12:38:23.295Z,33.49
2016-06-27T12:39:23.327Z,33.57
2016-06-27T12:40:22.127Z,33.68
2016-06-27T12:41:23.631Z,33.59
2016-06-27T12:42:23.624Z,33.57
2016-06-27T12:43:22.220Z,33.55
2016-06-27T12:44:22.888Z,33.47
2016-06-27T12:45:22.917Z,33.5
2016-06-27T12:46:22.946Z,33.46
2016-06-27T12:47:23.030Z,33.61
2016-06-27T12:48:23.638Z,33.64
2016-06-27T12:49:23.667Z,33.81
2016-06-27T12:50:23.696Z,33.87
2016-06-27T12:51:22.490Z,33.89
2016-06-27T12:52:22.565Z,33.94
2016-06-27T12:53:23.383Z,33.9
2016-06-27T12:54:23.245Z,33.87
2016-06-27T12:55:22.665Z,33.92
2016-06-27T12:56:24.446Z,34.1
2016-06-27T12:57:23.345Z,34.08